Time;durP1;ratioP1;P1;durP2;ratioP2;P2;SDS_P1;SDS_P2;PMS_P1;PMS_P2;Temp;Humidity;BMP_temperature;BMP_pressure;BME280_temperature;BME280_humidity;BME280_pressure;Samples;Min_cycle;Max_cycle;Signal;HPM_P1;HPM_P2
2023/06/15 00:01:21;;;;;;;6.90;5.07;;;18.70;99.90;;;;;;5095984;28;20204;-80
2023/06/15 00:03:48;;;;;;;9.27;5.33;;;18.60;99.90;;;;;;5084895;28;20215;-81
2023/06/15 00:06:15;;;;;;;11.50;5.33;;;18.60;99.90;;;;;;5080709;28;20214;-81
2023/06/15 00:08:41;;;;;;;7.13;5.00;;;18.50;99.90;;;;;;5099743;28;20624;-82
2023/06/15 00:11:08;;;;;;;7.77;5.57;;;18.40;99.90;;;;;;5095485;28;20200;-80
2023/06/15 00:13:35;;;;;;;9.90;5.50;;;18.30;99.90;;;;;;5095437;28;20265;-81
2023/06/15 00:16:03;;;;;;;7.27;5.57;;;18.20;99.90;;;;;;5094687;28;20215;-81
2023/06/15 00:18:32;;;;;;;8.40;5.63;;;18.20;99.90;;;;;;5094963;28;20235;-82
2023/06/15 00:21:00;;;;;;;6.33;5.20;;;18.10;99.90;;;;;;5101824;28;20235;-80
2023/06/15 00:23:27;;;;;;;6.93;5.00;;;18.10;99.90;;;;;;5084134;28;20211;-81
2023/06/15 00:25:55;;;;;;;7.00;5.20;;;18.00;99.90;;;;;;5098549;28;20207;-82
2023/06/15 00:28:22;;;;;;;11.13;5.77;;;18.10;99.90;;;;;;5085780;28;20195;-80
2023/06/15 00:30:50;;;;;;;7.90;5.37;;;18.00;99.90;;;;;;5100128;28;20203;-79
2023/06/15 00:33:17;;;;;;;8.30;4.93;;;17.90;99.90;;;;;;5098633;28;20214;-81
2023/06/15 00:35:46;;;;;;;9.53;5.83;;;17.90;99.90;;;;;;5098585;28;20255;-81
2023/06/15 00:38:13;;;;;;;8.07;4.93;;;17.90;99.90;;;;;;5107550;27;20300;-81
2023/06/15 00:40:40;;;;;;;6.73;4.73;;;17.90;99.90;;;;;;5101047;28;20306;-82
2023/06/15 00:43:07;;;;;;;6.93;5.00;;;17.80;99.90;;;;;;5096796;28;20196;-81
2023/06/15 00:45:35;;;;;;;6.73;5.20;;;17.80;99.90;;;;;;5096627;28;20563;-79
2023/06/15 00:48:02;;;;;;;6.80;5.77;;;17.80;99.90;;;;;;5100317;28;20203;-82
2023/06/15 00:50:30;;;;;;;8.20;5.20;;;17.80;99.90;;;;;;5098646;28;20310;-81
2023/06/15 00:53:03;;;;;;;8.30;5.87;;;17.70;99.90;;;;;;5099692;28;20264;-80
2023/06/15 00:55:34;;;;;;;8.63;5.50;;;17.70;99.90;;;;;;5083854;28;20262;-83
2023/06/15 00:58:02;;;;;;;8.73;5.60;;;17.70;99.90;;;;;;5097815;28;20211;-82
2023/06/15 01:00:36;;;;;;;9.17;6.00;;;17.70;99.90;;;;;;5083557;28;20253;-80
2023/06/15 01:03:04;;;;;;;8.20;5.87;;;17.60;99.90;;;;;;5098892;28;20211;-83
2023/06/15 01:05:35;;;;;;;8.53;5.73;;;17.50;99.90;;;;;;5085225;28;20640;-82
2023/06/15 01:08:08;;;;;;;6.60;5.40;;;17.50;99.90;;;;;;5092110;28;20216;-81
2023/06/15 01:10:36;;;;;;;8.97;6.00;;;17.40;99.90;;;;;;5075435;28;20576;-81
2023/06/15 01:13:04;;;;;;;7.60;5.70;;;17.40;99.90;;;;;;5092061;28;20215;-80
2023/06/15 01:15:33;;;;;;;8.07;5.60;;;17.20;99.90;;;;;;5092816;28;20219;-81
2023/06/15 01:18:03;;;;;;;8.20;5.90;;;17.30;99.90;;;;;;5092367;28;20203;-83
2023/06/15 01:20:39;;;;;;;8.70;5.70;;;17.20;99.90;;;;;;5089246;28;20380;-82
2023/06/15 01:23:27;;;;;;;10.50;6.50;;;17.20;99.90;;;;;;5096715;28;20216;-82
2023/06/15 01:26:05;;;;;;;11.20;6.20;;;17.10;99.90;;;;;;5098237;28;20205;-81
2023/06/15 01:28:35;;;;;;;6.67;5.80;;;17.10;99.90;;;;;;5097471;28;20213;-81
2023/06/15 01:31:02;;;;;;;7.03;5.40;;;17.00;99.90;;;;;;5098608;28;20211;-83
2023/06/15 01:33:31;;;;;;;7.43;5.77;;;17.00;99.90;;;;;;5097528;28;20208;-82
2023/06/15 01:35:58;;;;;;;8.00;5.87;;;16.90;99.90;;;;;;5094094;27;20289;-84
2023/06/15 01:38:28;;;;;;;9.30;5.40;;;17.00;99.90;;;;;;5101120;27;20218;-82
2023/06/15 01:40:56;;;;;;;9.07;5.23;;;16.90;99.90;;;;;;5092093;28;20253;-81
2023/06/15 01:43:27;;;;;;;9.40;6.30;;;16.80;99.90;;;;;;5079319;28;20203;-84
2023/06/15 01:45:55;;;;;;;6.00;4.63;;;16.80;99.90;;;;;;5097733;28;20210;-83
2023/06/15 01:48:25;;;;;;;9.20;5.67;;;16.80;99.90;;;;;;5098572;28;20208;-82
2023/06/15 01:50:52;;;;;;;6.60;5.10;;;16.70;99.90;;;;;;5100856;28;20580;-81
2023/06/15 01:53:19;;;;;;;7.13;5.00;;;16.70;99.90;;;;;;5101892;28;20213;-82
2023/06/15 01:55:46;;;;;;;6.83;5.20;;;16.70;99.90;;;;;;5094839;28;20753;-84
2023/06/15 01:58:16;;;;;;;7.23;5.13;;;16.70;99.90;;;;;;5099253;28;20207;-81
2023/06/15 02:00:44;;;;;;;7.47;5.17;;;16.60;99.90;;;;;;5101971;28;20671;-81
2023/06/15 02:03:12;;;;;;;9.73;5.63;;;16.60;99.90;;;;;;5099531;28;20269;-80
2023/06/15 02:05:40;;;;;;;9.53;6.00;;;16.60;99.90;;;;;;5099011;28;20316;-83
2023/06/15 02:08:08;;;;;;;6.73;5.37;;;16.40;99.90;;;;;;5096070;28;20217;-83
2023/06/15 02:10:35;;;;;;;10.23;5.80;;;16.40;99.90;;;;;;5091610;28;20217;-82
2023/06/15 02:13:02;;;;;;;8.57;5.70;;;16.40;99.90;;;;;;5097113;28;20291;-81
2023/06/15 02:15:29;;;;;;;7.27;5.23;;;16.40;99.90;;;;;;5081409;28;20232;-79
2023/06/15 02:18:01;;;;;;;6.73;5.33;;;16.40;99.90;;;;;;5098400;28;20214;-81
2023/06/15 02:20:28;;;;;;;9.20;5.27;;;16.40;99.90;;;;;;5077274;28;20277;-81
2023/06/15 02:22:59;;;;;;;7.70;5.40;;;16.30;99.90;;;;;;5077855;28;20213;-81
2023/06/15 02:25:29;;;;;;;9.47;5.73;;;16.30;99.90;;;;;;5075148;28;20729;-82
2023/06/15 02:27:56;;;;;;;7.70;5.43;;;16.40;99.90;;;;;;5078479;28;20218;-82
2023/06/15 02:30:25;;;;;;;7.83;5.03;;;16.20;99.90;;;;;;5077868;28;20196;-82
2023/06/15 02:32:53;;;;;;;7.57;5.53;;;16.20;99.90;;;;;;5078041;28;20203;-81
2023/06/15 02:35:21;;;;;;;7.60;5.67;;;16.20;99.90;;;;;;5072793;28;20316;-82
2023/06/15 02:37:48;;;;;;;5.97;4.80;;;16.20;99.90;;;;;;5088585;28;20300;-82
2023/06/15 02:40:15;;;;;;;8.13;5.50;;;16.10;99.90;;;;;;5075079;28;20205;-85
2023/06/15 02:42:41;;;;;;;7.57;5.23;;;16.10;99.90;;;;;;5078497;28;20703;-84
2023/06/15 02:45:09;;;;;;;8.47;5.63;;;15.90;99.90;;;;;;5075545;28;20344;-82
2023/06/15 02:47:37;;;;;;;6.27;5.37;;;16.00;99.90;;;;;;5075945;28;20603;-81
2023/06/15 02:50:05;;;;;;;6.57;5.03;;;16.00;99.90;;;;;;5076257;28;20219;-82
2023/06/15 02:52:32;;;;;;;6.77;5.27;;;15.90;99.90;;;;;;5077588;28;20223;-81
2023/06/15 02:55:00;;;;;;;8.17;5.40;;;15.90;99.90;;;;;;5080262;28;20255;-81
2023/06/15 02:57:27;;;;;;;8.73;5.30;;;15.90;99.90;;;;;;5080152;28;20203;-82
2023/06/15 02:59:54;;;;;;;8.43;5.50;;;15.80;99.90;;;;;;5070081;28;20211;-81
2023/06/15 03:02:22;;;;;;;6.57;5.27;;;15.80;99.90;;;;;;5070119;28;20209;-83
2023/06/15 03:04:50;;;;;;;7.70;5.37;;;15.70;99.90;;;;;;5078423;28;20232;-82
2023/06/15 03:07:20;;;;;;;7.60;5.53;;;15.70;99.90;;;;;;5087223;28;20212;-82
2023/06/15 03:09:48;;;;;;;7.83;5.73;;;15.60;99.90;;;;;;5075458;28;20244;-81
2023/06/15 03:12:15;;;;;;;9.23;5.93;;;15.60;99.90;;;;;;5078707;28;20212;-83
2023/06/15 03:14:44;;;;;;;7.87;5.33;;;15.60;99.90;;;;;;5081281;28;20600;-82
2023/06/15 03:17:12;;;;;;;7.50;5.67;;;15.60;99.90;;;;;;5078734;28;20537;-83
2023/06/15 03:19:40;;;;;;;8.63;5.13;;;15.50;99.90;;;;;;5073781;28;20221;-82
2023/06/15 03:22:07;;;;;;;8.67;5.30;;;15.50;99.90;;;;;;5077274;28;20692;-83
2023/06/15 03:24:35;;;;;;;9.03;5.60;;;15.60;99.90;;;;;;5070907;28;20217;-82
2023/06/15 03:27:03;;;;;;;5.77;5.13;;;15.50;99.90;;;;;;5076354;28;20212;-82
2023/06/15 03:29:31;;;;;;;9.03;5.20;;;15.50;99.90;;;;;;5072745;28;20223;-83
2023/06/15 03:31:58;;;;;;;8.93;5.57;;;15.50;99.90;;;;;;5076336;28;20300;-82
2023/06/15 03:34:25;;;;;;;8.03;5.03;;;15.50;99.90;;;;;;5073782;28;20211;-84
2023/06/15 03:36:53;;;;;;;9.37;6.00;;;15.40;99.90;;;;;;5078658;28;20211;-83
2023/06/15 03:39:20;;;;;;;6.00;4.93;;;15.40;99.90;;;;;;5072293;28;20222;-83
2023/06/15 03:41:47;;;;;;;10.17;5.60;;;15.40;99.90;;;;;;5078926;28;20252;-83
2023/06/15 03:44:14;;;;;;;8.43;6.27;;;15.40;99.90;;;;;;5069300;28;20216;-82
2023/06/15 03:46:41;;;;;;;7.83;5.37;;;15.40;99.90;;;;;;5078514;28;20262;-81
2023/06/15 03:49:10;;;;;;;7.87;5.77;;;15.50;99.90;;;;;;5079807;28;20207;-84
2023/06/15 03:51:38;;;;;;;9.47;5.63;;;15.40;99.90;;;;;;5075328;28;20864;-83
2023/06/15 03:54:05;;;;;;;7.63;5.10;;;15.40;99.90;;;;;;5081052;28;20219;-83
2023/06/15 03:56:32;;;;;;;7.73;5.50;;;15.40;99.90;;;;;;5080000;28;20268;-83
2023/06/15 03:58:59;;;;;;;7.67;5.67;;;15.40;99.90;;;;;;5075444;28;20645;-86
2023/06/15 04:01:26;;;;;;;6.00;5.17;;;15.50;99.90;;;;;;5070433;28;20223;-82
2023/06/15 04:03:53;;;;;;;12.67;6.00;;;15.30;99.90;;;;;;5072680;28;20204;-84
2023/06/15 04:06:24;;;;;;;7.87;5.67;;;15.40;99.90;;;;;;5074133;28;20686;-83
2023/06/15 04:08:51;;;;;;;7.53;5.80;;;15.50;99.90;;;;;;5075989;28;20625;-81
2023/06/15 04:11:21;;;;;;;8.43;5.73;;;15.50;99.90;;;;;;5076395;28;20212;-82
2023/06/15 04:13:49;;;;;;;10.47;6.43;;;15.50;99.90;;;;;;5076638;28;20208;-83
2023/06/15 04:16:16;;;;;;;7.97;5.87;;;15.50;99.90;;;;;;5077071;28;20224;-82
2023/06/15 04:18:42;;;;;;;7.30;6.47;;;15.50;99.90;;;;;;5079417;28;20212;-82
2023/06/15 04:21:09;;;;;;;7.90;5.40;;;15.50;99.90;;;;;;5095889;28;20226;-82
2023/06/15 04:23:36;;;;;;;7.60;5.90;;;15.60;99.90;;;;;;5096741;28;20300;-82
2023/06/15 04:26:03;;;;;;;8.07;5.67;;;15.60;99.90;;;;;;5094332;28;20207;-82
2023/06/15 04:28:30;;;;;;;10.30;5.80;;;15.60;99.90;;;;;;5092990;28;20577;-82
2023/06/15 04:31:09;;;;;;;9.87;5.83;;;15.70;99.90;;;;;;5099323;28;20207;-82
2023/06/15 04:33:42;;;;;;;7.43;5.00;;;15.70;99.90;;;;;;5094559;28;20336;-84
2023/06/15 04:36:13;;;;;;;8.97;5.23;;;15.70;99.90;;;;;;5089795;28;20226;-81
2023/06/15 04:38:48;;;;;;;8.17;5.30;;;15.70;99.90;;;;;;5082100;28;20291;-83
2023/06/15 04:41:18;;;;;;;10.17;5.13;;;15.80;99.90;;;;;;5095451;28;20246;-83
2023/06/15 04:43:45;;;;;;;8.70;5.70;;;15.80;99.90;;;;;;5098330;28;20252;-83
2023/06/15 04:46:12;;;;;;;7.97;5.97;;;15.90;99.90;;;;;;5094477;28;20203;-83
2023/06/15 04:48:43;;;;;;;9.07;5.23;;;16.00;99.90;;;;;;5102135;28;20284;-83
2023/06/15 04:51:15;;;;;;;7.10;6.03;;;16.10;99.90;;;;;;5093126;28;20215;-82
2023/06/15 04:53:45;;;;;;;6.33;5.03;;;16.10;99.90;;;;;;5090146;28;20455;-83
2023/06/15 04:56:12;;;;;;;9.07;6.40;;;16.10;99.90;;;;;;5092517;28;20761;-81
2023/06/15 04:58:39;;;;;;;7.40;5.63;;;16.20;99.90;;;;;;5094986;27;20203;-81
2023/06/15 05:01:07;;;;;;;10.00;5.97;;;16.30;99.90;;;;;;5101130;27;20208;-83
2023/06/15 05:03:34;;;;;;;8.20;5.77;;;16.30;99.90;;;;;;5092266;28;20204;-80
2023/06/15 05:06:01;;;;;;;7.97;5.83;;;16.30;99.90;;;;;;5100768;28;20200;-81
2023/06/15 05:08:33;;;;;;;8.87;6.23;;;16.40;99.90;;;;;;5096580;28;20273;-82
2023/06/15 05:11:00;;;;;;;9.40;6.10;;;16.50;99.90;;;;;;5098246;28;20219;-81
2023/06/15 05:13:30;;;;;;;9.97;6.00;;;16.60;99.90;;;;;;5099151;28;20196;-83
2023/06/15 05:15:57;;;;;;;10.33;5.83;;;16.70;99.90;;;;;;5099084;28;20234;-80
2023/06/15 05:18:24;;;;;;;7.40;6.20;;;16.80;99.90;;;;;;5100488;28;20204;-82
2023/06/15 05:20:50;;;;;;;10.07;5.80;;;16.90;99.90;;;;;;5096989;28;20238;-81
2023/06/15 05:23:20;;;;;;;7.47;5.50;;;17.00;99.90;;;;;;5098556;28;20208;-81
2023/06/15 05:25:48;;;;;;;10.67;6.13;;;17.30;99.90;;;;;;5100068;28;20203;-81
2023/06/15 05:28:17;;;;;;;7.95;5.47;;;18.00;99.90;;;;;;5101653;28;20283;-81
2023/06/15 05:30:44;;;;;;;7.10;5.05;;;19.00;99.90;;;;;;5080781;28;20210;-81
2023/06/15 05:33:11;;;;;;;9.80;5.32;;;19.90;99.90;;;;;;5097699;28;20207;-82
2023/06/15 05:35:38;;;;;;;6.82;4.68;;;20.90;99.90;;;;;;5098921;28;20243;-81
2023/06/15 05:38:05;;;;;;;6.93;4.90;;;21.80;99.90;;;;;;5084198;28;20216;-80
2023/06/15 05:40:35;;;;;;;8.52;5.28;;;22.70;99.90;;;;;;5073822;22;20225;-91
2023/06/15 05:43:06;;;;;;;9.15;5.47;;;23.50;99.90;;;;;;5037243;28;20220;-89
2023/06/15 05:45:38;;;;;;;7.35;4.45;;;24.30;99.90;;;;;;5021247;28;20205;-87
2023/06/15 05:48:08;;;;;;;8.77;5.18;;;25.00;99.90;;;;;;5041385;28;20312;-91
2023/06/15 05:50:35;;;;;;;8.52;4.85;;;25.60;99.90;;;;;;5026525;28;20226;-90
2023/06/15 05:53:07;;;;;;;8.35;5.03;;;26.10;99.90;;;;;;5023034;28;20226;-91
2023/06/15 05:55:34;;;;;;;6.07;4.70;;;26.60;99.90;;;;;;5027883;28;20241;-93
2023/06/15 05:58:02;;;;;;;6.78;4.90;;;27.00;99.90;;;;;;5043872;28;20202;-94
2023/06/15 06:00:33;;;;;;;9.00;5.10;;;27.30;99.90;;;;;;5022984;28;20192;-90
2023/06/15 06:03:01;;;;;;;8.35;5.15;;;27.70;99.90;;;;;;5032955;28;20218;-88
2023/06/15 06:05:30;;;;;;;6.43;5.35;;;27.80;98.80;;;;;;5044124;28;20210;-89
2023/06/15 06:07:57;;;;;;;6.00;5.03;;;28.00;98.20;;;;;;5034101;28;20208;-88
2023/06/15 06:10:24;;;;;;;6.82;4.68;;;27.70;97.50;;;;;;5015258;28;20279;-89
2023/06/15 06:12:52;;;;;;;7.35;5.07;;;27.80;96.60;;;;;;5045087;28;20210;-91
2023/06/15 06:15:22;;;;;;;7.05;5.10;;;28.00;96.50;;;;;;5041223;28;20222;-87
2023/06/15 06:17:50;;;;;;;8.55;5.63;;;28.10;96.00;;;;;;5016217;28;20210;-90
2023/06/15 06:20:35;;;;;;;6.45;5.18;;;28.40;95.90;;;;;;5028182;28;20225;-85
2023/06/15 06:23:05;;;;;;;10.13;5.80;;;28.70;95.40;;;;;;5028632;28;20257;-88
2023/06/15 06:25:32;;;;;;;5.50;4.95;;;28.90;94.30;;;;;;5024086;28;20202;-93
2023/06/15 06:28:00;;;;;;;7.53;5.40;;;29.00;94.30;;;;;;5019293;28;20206;-92
2023/06/15 06:30:28;;;;;;;6.72;5.10;;;29.10;93.80;;;;;;5021220;28;20285;-95
2023/06/15 06:33:04;;;;;;;6.72;5.28;;;29.40;93.60;;;;;;5026360;28;20198;-94
2023/06/15 06:35:36;;;;;;;5.93;4.80;;;29.80;92.90;;;;;;5022979;28;20648;-94
2023/06/15 06:38:18;;;;;;;6.93;5.28;;;30.10;92.20;;;;;;5038852;28;20985;-93
2023/06/15 06:40:46;;;;;;;7.35;5.18;;;30.40;90.20;;;;;;5032963;28;20366;-95
2023/06/15 06:43:16;;;;;;;6.03;4.75;;;30.40;90.70;;;;;;5041359;28;20275;-91
2023/06/15 06:45:44;;;;;;;7.72;4.68;;;30.50;90.30;;;;;;5043568;28;20213;-93
2023/06/15 06:48:17;;;;;;;5.13;4.63;;;30.50;89.90;;;;;;5039683;28;20221;-92
2023/06/15 06:50:48;;;;;;;10.15;4.70;;;30.80;88.10;;;;;;5059380;28;20670;-95
2023/06/15 06:53:17;;;;;;;5.55;4.88;;;30.90;87.80;;;;;;5042091;28;20223;-91
2023/06/15 06:55:48;;;;;;;6.63;5.07;;;31.10;87.60;;;;;;5028114;28;20221;-90
2023/06/15 06:58:18;;;;;;;8.25;5.03;;;31.30;87.20;;;;;;5034919;28;20197;-88
2023/06/15 07:00:47;;;;;;;6.78;4.40;;;31.50;85.60;;;;;;5027956;28;20256;-88
2023/06/15 07:03:20;;;;;;;7.05;4.72;;;31.70;84.70;;;;;;5039719;28;20290;-86
2023/06/15 07:05:47;;;;;;;7.85;4.88;;;31.70;82.90;;;;;;5041650;28;20356;-87
2023/06/15 07:08:14;;;;;;;8.93;4.60;;;31.60;83.20;;;;;;5039851;28;20248;-87
2023/06/15 07:10:42;;;;;;;7.18;4.65;;;31.80;82.90;;;;;;5029660;28;20229;-86
2023/06/15 07:13:14;;;;;;;6.68;4.70;;;31.70;82.20;;;;;;5041884;28;20203;-87
2023/06/15 07:15:45;;;;;;;10.70;4.90;;;31.50;82.80;;;;;;5002766;28;20333;-86
2023/06/15 07:18:14;;;;;;;6.18;4.82;;;31.50;82.90;;;;;;5038607;28;20208;-87
2023/06/15 07:20:43;;;;;;;6.47;4.97;;;31.30;82.60;;;;;;5033896;28;20989;-86
2023/06/15 07:23:14;;;;;;;6.22;4.95;;;31.30;82.80;;;;;;5025271;28;20225;-86
2023/06/15 07:25:41;;;;;;;7.55;5.05;;;31.50;81.90;;;;;;5042529;28;20895;-86
2023/06/15 07:28:08;;;;;;;8.95;4.97;;;31.60;81.20;;;;;;5029113;28;20627;-86
2023/06/15 07:30:46;;;;;;;6.63;4.80;;;31.50;81.30;;;;;;5041275;28;20410;-88
2023/06/15 07:33:13;;;;;;;7.13;5.15;;;31.90;80.50;;;;;;5029580;28;20201;-87
2023/06/15 07:35:41;;;;;;;6.78;5.15;;;32.20;79.80;;;;;;5047127;28;20212;-85
2023/06/15 07:38:07;;;;;;;6.85;5.13;;;32.30;79.30;;;;;;5049349;28;20217;-86
2023/06/15 07:40:37;;;;;;;9.35;4.90;;;32.30;78.60;;;;;;5044146;28;20622;-85
2023/06/15 07:43:06;;;;;;;8.93;5.38;;;32.20;78.70;;;;;;5050520;28;20240;-84
2023/06/15 07:45:33;;;;;;;6.55;4.50;;;32.20;78.60;;;;;;5023073;28;20657;-84
2023/06/15 07:48:00;;;;;;;7.32;4.68;;;32.30;79.20;;;;;;5017612;28;20620;-88
2023/06/15 07:50:28;;;;;;;8.15;5.40;;;32.10;78.80;;;;;;5025217;28;20205;-87
2023/06/15 07:52:55;;;;;;;9.75;4.90;;;32.20;78.40;;;;;;5036352;28;20220;-87
2023/06/15 07:55:23;;;;;;;7.85;5.10;;;32.20;78.30;;;;;;5048695;28;20204;-86
2023/06/15 07:57:50;;;;;;;11.43;5.28;;;32.30;77.70;;;;;;5041990;28;20319;-86
2023/06/15 08:00:21;;;;;;;7.50;4.75;;;32.30;77.50;;;;;;5055870;28;20203;-88
2023/06/15 08:02:53;;;;;;;6.57;4.82;;;32.30;77.60;;;;;;5045179;28;20223;-88
2023/06/15 08:05:20;;;;;;;6.32;4.35;;;32.30;77.30;;;;;;5045812;28;20255;-91
2023/06/15 08:07:47;;;;;;;6.72;4.88;;;32.30;76.50;;;;;;5037191;28;20213;-88
2023/06/15 08:10:18;;;;;;;7.75;4.65;;;32.30;76.20;;;;;;5038657;28;20198;-92
2023/06/15 08:13:03;;;;;;;7.20;4.78;;;32.40;76.00;;;;;;5034085;28;20217;-90
2023/06/15 08:15:33;;;;;;;6.85;4.78;;;32.40;75.20;;;;;;5032269;28;20217;-90
2023/06/15 08:18:12;;;;;;;8.25;4.88;;;32.20;75.10;;;;;;5046193;28;20225;-89
2023/06/15 08:20:44;;;;;;;7.65;4.93;;;32.30;75.00;;;;;;5046163;28;20223;-90
2023/06/15 08:23:11;;;;;;;6.68;5.25;;;32.10;74.70;;;;;;5045119;28;20221;-89
2023/06/15 08:25:43;;;;;;;5.28;4.63;;;32.10;75.20;;;;;;5041108;28;20259;-90
2023/06/15 08:28:17;;;;;;;4.88;3.33;;;31.80;75.20;;;;;;5043723;28;20212;-91
2023/06/15 08:30:47;;;;;;;7.50;4.18;;;31.40;75.40;;;;;;5055287;28;20200;-93
2023/06/15 08:33:20;;;;;;;7.13;3.97;;;31.10;75.20;;;;;;5050707;28;20291;-90
2023/06/15 08:35:55;;;;;;;5.72;3.72;;;31.10;74.60;;;;;;5059028;28;20267;-89
2023/06/15 08:38:30;;;;;;;5.03;4.10;;;31.20;74.90;;;;;;5035902;28;20252;-87
2023/06/15 08:41:00;;;;;;;6.90;3.60;;;31.20;74.90;;;;;;5061993;28;20236;-91
2023/06/15 08:43:30;;;;;;;5.32;3.47;;;31.00;74.50;;;;;;5046922;28;20227;-91
2023/06/15 08:46:02;;;;;;;4.75;3.22;;;31.00;74.50;;;;;;5057189;28;20662;-87
2023/06/15 08:48:34;;;;;;;4.88;3.50;;;30.90;74.70;;;;;;5044513;28;20242;-89
2023/06/15 08:51:19;;;;;;;4.82;3.03;;;31.20;74.60;;;;;;5056551;28;20252;-93
2023/06/15 08:53:56;;;;;;;5.82;3.30;;;31.40;73.10;;;;;;5073152;28;20282;-93
2023/06/15 08:56:27;;;;;;;3.90;3.30;;;31.60;72.50;;;;;;5053057;28;20222;-89
2023/06/15 08:58:56;;;;;;;3.67;3.03;;;31.50;72.90;;;;;;5046614;28;20205;-89
2023/06/15 09:01:25;;;;;;;5.28;3.13;;;31.50;72.40;;;;;;5044061;28;20276;-87
2023/06/15 09:03:55;;;;;;;4.55;2.80;;;31.40;72.80;;;;;;5054382;28;20265;-91
2023/06/15 09:06:23;;;;;;;5.78;2.78;;;31.70;72.10;;;;;;5061298;28;20567;-87
2023/06/15 09:08:54;;;;;;;5.07;3.40;;;31.90;70.80;;;;;;5051535;28;20239;-92
2023/06/15 09:11:23;;;;;;;4.40;2.83;;;31.80;70.40;;;;;;5037772;28;20256;-92
2023/06/15 09:13:53;;;;;;;2.97;2.63;;;31.80;70.60;;;;;;5046430;28;20194;-92
2023/06/15 09:16:25;;;;;;;4.63;3.03;;;31.80;70.80;;;;;;5043724;28;20229;-89
2023/06/15 09:18:55;;;;;;;4.43;2.58;;;31.80;70.00;;;;;;5048568;28;20201;-89
2023/06/15 09:21:26;;;;;;;4.25;3.08;;;31.80;69.90;;;;;;5051939;28;20197;-92
2023/06/15 09:24:07;;;;;;;2.85;2.47;;;31.80;69.90;;;;;;5046668;28;20295;-90
2023/06/15 09:26:39;;;;;;;3.20;2.70;;;31.90;68.20;;;;;;5050133;28;20666;-88
2023/06/15 09:29:12;;;;;;;4.50;2.60;;;31.80;68.50;;;;;;5038934;28;20259;-86
2023/06/15 09:31:51;;;;;;;7.97;2.50;;;31.90;68.20;;;;;;5048096;28;20594;-87
2023/06/15 09:34:18;;;;;;;4.18;2.60;;;32.00;68.70;;;;;;5036950;28;20715;-89
2023/06/15 09:36:51;;;;;;;3.92;2.60;;;31.90;67.90;;;;;;5056386;28;20231;-92
2023/06/15 09:39:23;;;;;;;5.60;2.50;;;31.90;67.20;;;;;;5037277;28;20245;-88
2023/06/15 09:42:02;;;;;;;5.30;2.40;;;31.80;67.00;;;;;;5023210;28;20237;-87
2023/06/15 09:44:32;;;;;;;5.05;2.75;;;31.70;66.60;;;;;;5051865;28;20292;-87
2023/06/15 09:47:01;;;;;;;4.28;2.45;;;31.40;67.30;;;;;;5041267;28;20213;-88
2023/06/15 09:49:28;;;;;;;4.20;2.45;;;31.40;66.90;;;;;;5030257;28;20257;-87
2023/06/15 09:51:58;;;;;;;3.28;2.33;;;31.40;67.10;;;;;;5044209;28;20248;-89
2023/06/15 09:54:31;;;;;;;4.38;2.88;;;31.40;65.80;;;;;;5061678;28;20290;-88
2023/06/15 09:57:01;;;;;;;4.32;2.30;;;31.30;65.30;;;;;;5046064;28;20205;-91
2023/06/15 09:59:31;;;;;;;6.18;2.88;;;31.30;65.40;;;;;;5045496;28;20233;-87
2023/06/15 10:02:01;;;;;;;4.80;2.67;;;31.20;66.00;;;;;;5051877;28;20260;-90
2023/06/15 10:04:31;;;;;;;3.25;2.65;;;31.00;66.40;;;;;;5056565;28;20208;-88
2023/06/15 10:07:03;;;;;;;4.00;2.75;;;30.80;66.10;;;;;;5059442;28;20206;-88
2023/06/15 10:09:44;;;;;;;4.63;2.60;;;30.80;66.60;;;;;;5047799;28;20228;-87
2023/06/15 10:12:12;;;;;;;4.50;2.60;;;30.90;66.80;;;;;;5066100;28;20236;-89
2023/06/15 10:15:02;;;;;;;4.53;2.45;;;31.00;66.80;;;;;;5052605;28;20252;-86
2023/06/15 10:17:32;;;;;;;3.58;2.45;;;31.00;66.40;;;;;;5033458;28;20236;-85
2023/06/15 10:20:07;;;;;;;4.93;2.33;;;30.90;65.90;;;;;;5034495;28;20210;-86
2023/06/15 10:22:45;;;;;;;4.55;3.03;;;31.00;66.60;;;;;;5043902;28;20209;-86
2023/06/15 10:25:14;;;;;;;3.92;2.60;;;31.20;66.50;;;;;;5050501;28;20213;-86
2023/06/15 10:27:43;;;;;;;3.97;2.80;;;31.30;66.80;;;;;;5047396;28;20219;-89
2023/06/15 10:30:20;;;;;;;3.78;2.80;;;31.20;66.00;;;;;;5042554;28;20229;-86
2023/06/15 10:33:19;;;;;;;5.53;2.83;;;31.40;65.60;;;;;;5044123;28;20220;-87
2023/06/15 10:36:09;;;;;;;6.78;2.53;;;31.40;64.90;;;;;;5020005;28;20208;-86
2023/06/15 10:38:45;;;;;;;3.45;2.60;;;31.00;63.10;;;;;;5026043;28;21572;-87
2023/06/15 10:41:14;;;;;;;3.78;2.63;;;30.70;63.80;;;;;;5020116;28;20224;-87
2023/06/15 10:44:02;;;;;;;4.90;2.50;;;30.50;63.60;;;;;;5038694;28;20218;-86
2023/06/15 10:46:32;;;;;;;3.78;2.65;;;30.40;63.40;;;;;;5038595;28;20206;-86
2023/06/15 10:49:04;;;;;;;3.45;2.42;;;30.50;64.10;;;;;;5038913;28;20212;-85
2023/06/15 10:51:51;;;;;;;3.72;2.22;;;30.40;63.80;;;;;;5036076;28;20718;-86
2023/06/15 10:54:27;;;;;;;4.53;2.50;;;30.40;64.20;;;;;;5033418;28;20232;-87
2023/06/15 10:56:55;;;;;;;4.50;2.22;;;30.40;64.30;;;;;;5043378;28;20232;-85
2023/06/15 10:59:47;;;;;;;4.90;2.75;;;30.40;64.20;;;;;;5030939;28;21089;-85
2023/06/15 11:02:27;;;;;;;4.00;2.92;;;30.30;65.10;;;;;;5034685;28;20209;-87
2023/06/15 11:05:08;;;;;;;4.57;2.20;;;30.30;65.20;;;;;;5042165;28;20255;-86
2023/06/15 11:07:40;;;;;;;5.07;2.78;;;30.10;63.80;;;;;;5042813;28;20212;-86
2023/06/15 11:10:14;;;;;;;5.15;2.67;;;30.10;64.30;;;;;;5046055;28;20773;-88
2023/06/15 11:12:44;;;;;;;4.93;2.80;;;30.20;64.50;;;;;;5047299;28;20216;-87
2023/06/15 11:15:14;;;;;;;5.05;2.80;;;30.30;63.30;;;;;;5032139;28;20322;-87
2023/06/15 11:18:00;;;;;;;2.53;2.33;;;30.40;61.90;;;;;;5029425;28;20212;-88
2023/06/15 11:20:58;;;;;;;3.10;2.55;;;30.50;60.40;;;;;;5029203;28;20208;-88
2023/06/15 11:23:32;;;;;;;4.72;2.53;;;30.50;59.40;;;;;;5037669;28;20232;-86
2023/06/15 11:26:01;;;;;;;5.55;2.90;;;30.50;58.90;;;;;;5036639;28;20201;-88
2023/06/15 11:28:33;;;;;;;4.10;2.80;;;30.40;58.50;;;;;;5044134;28;20306;-89
2023/06/15 11:31:06;;;;;;;6.15;2.75;;;30.40;58.50;;;;;;5040470;28;20232;-91
2023/06/15 11:33:37;;;;;;;4.53;2.50;;;30.30;58.70;;;;;;5037571;28;20208;-88
2023/06/15 11:36:07;;;;;;;4.28;2.67;;;30.30;58.50;;;;;;5045392;28;20274;-86
2023/06/15 11:38:37;;;;;;;4.63;2.35;;;30.30;58.80;;;;;;5027666;28;20660;-87
2023/06/15 11:41:05;;;;;;;3.17;2.83;;;30.30;57.80;;;;;;5022787;28;20246;-89
2023/06/15 11:43:40;;;;;;;4.82;2.80;;;30.30;57.00;;;;;;5048843;28;20206;-89
2023/06/15 11:46:21;;;;;;;4.20;2.83;;;30.20;57.50;;;;;;5039461;28;20250;-88
2023/06/15 11:48:57;;;;;;;3.65;2.63;;;30.30;58.50;;;;;;5040290;28;20587;-89
2023/06/15 11:51:27;;;;;;;3.60;2.60;;;30.30;57.80;;;;;;5040900;28;20605;-88
2023/06/15 11:53:54;;;;;;;3.95;2.90;;;30.30;57.60;;;;;;5015060;28;20320;-85
2023/06/15 11:56:22;;;;;;;4.57;2.72;;;30.40;57.60;;;;;;5052918;28;20219;-85
2023/06/15 11:58:50;;;;;;;5.55;2.80;;;30.40;57.70;;;;;;5031270;28;20263;-85
2023/06/15 12:01:18;;;;;;;2.97;2.65;;;30.50;57.20;;;;;;5046418;28;20303;-88
2023/06/15 12:04:01;;;;;;;4.13;2.80;;;30.60;56.60;;;;;;5056043;28;20236;-85
2023/06/15 12:06:33;;;;;;;3.20;2.58;;;30.70;55.10;;;;;;5045098;28;20208;-87
2023/06/15 12:09:10;;;;;;;3.78;2.88;;;30.80;55.50;;;;;;5054526;28;20277;-89
2023/06/15 12:11:38;;;;;;;5.45;3.00;;;30.80;55.40;;;;;;5056028;28;20209;-88
2023/06/15 12:14:20;;;;;;;;;;;;;;;;;;;;;
2023/06/15 12:21:27;;;;;;;;;;;;;;;;;;;;;
2023/06/15 12:24:22;;;;;;;3.97;2.72;;;31.00;54.30;;;;;;4923569;28;20218;-89
2023/06/15 12:27:22;;;;;;;5.20;2.90;;;31.10;54.10;;;;;;4993007;28;21302;-88
2023/06/15 12:30:30;;;;;;;4.35;2.75;;;31.30;53.70;;;;;;4985381;28;20234;-89
2023/06/15 12:33:52;;;;;;;4.10;2.50;;;31.30;54.40;;;;;;5000151;28;20644;-89
2023/06/15 12:36:33;;;;;;;3.22;2.70;;;31.20;52.30;;;;;;4989949;28;20254;-86
2023/06/15 12:39:15;;;;;;;3.55;2.45;;;31.10;53.80;;;;;;5009309;28;20826;-88
2023/06/15 12:42:03;;;;;;;4.28;2.45;;;31.20;53.10;;;;;;4972485;28;20207;-88
2023/06/15 12:44:41;;;;;;;2.95;2.40;;;31.30;53.50;;;;;;5008443;28;20215;-85
2023/06/15 12:47:13;;;;;;;2.53;2.30;;;31.30;52.20;;;;;;4987808;28;20622;-86
2023/06/15 12:49:41;;;;;;;4.05;2.55;;;31.20;52.70;;;;;;4995369;28;20225;-88
2023/06/15 12:52:34;;;;;;;4.10;2.40;;;31.20;52.10;;;;;;4995186;28;20191;-89
2023/06/15 12:55:09;;;;;;;2.28;2.08;;;31.20;52.90;;;;;;5000158;28;20231;-87
2023/06/15 12:57:46;;;;;;;3.13;2.40;;;31.20;53.40;;;;;;5026508;28;20339;-90
2023/06/15 13:00:34;;;;;;;3.35;2.25;;;31.20;53.00;;;;;;5029913;28;20208;-89
2023/06/15 13:03:05;;;;;;;3.20;2.10;;;31.30;53.50;;;;;;5027665;28;21037;-88
2023/06/15 13:05:36;;;;;;;3.45;1.88;;;31.30;51.80;;;;;;5030060;28;20681;-86
2023/06/15 13:08:04;;;;;;;3.13;2.30;;;31.20;50.20;;;;;;5045667;28;20244;-86
2023/06/15 13:10:34;;;;;;;2.88;1.85;;;31.20;51.20;;;;;;5021298;28;20210;-86
2023/06/15 13:13:02;;;;;;;3.38;2.05;;;31.30;51.40;;;;;;5043720;28;20205;-86